Time;durP1;ratioP1;P1;durP2;ratioP2;P2;SDS_P1;SDS_P2;PMS_P1;PMS_P2;Temp;Humidity;BMP_temperature;BMP_pressure;BME280_temperature;BME280_humidity;BME280_pressure;Samples;Min_cycle;Max_cycle;Signal;HPM_P1;HPM_P2
2021/12/02 00:02:14;;;;;;;4.80;1.30;;;;;;;10.42;43.60;98047.41;5112998;28;20047;-72
2021/12/02 00:04:43;;;;;;;5.15;0.82;;;;;;;11.09;42.73;98043.91;5113128;28;20457;-72
2021/12/02 00:07:10;;;;;;;1.35;0.47;;;;;;;10.62;43.08;98066.94;5111606;28;20063;-72
2021/12/02 00:09:37;;;;;;;4.85;0.88;;;;;;;10.60;43.31;98063.69;5112697;28;20086;-72
2021/12/02 00:12:05;;;;;;;4.05;0.70;;;;;;;10.57;43.80;98068.59;5116033;28;20075;-72
2021/12/02 00:14:45;;;;;;;3.70;1.25;;;;;;;10.73;43.73;98057.56;5115794;28;20105;-72
2021/12/02 00:17:19;;;;;;;5.40;0.77;;;;;;;10.59;43.79;98075.34;5118272;28;20495;-72
2021/12/02 00:22:45;;;;;;;3.42;0.70;;;;;;;10.70;43.43;98084.59;5119563;27;20059;-72
2021/12/02 00:25:12;;;;;;;3.25;0.80;;;;;;;10.73;43.25;98070.88;5098052;28;20076;-72
2021/12/02 00:27:39;;;;;;;4.88;0.90;;;;;;;10.08;44.28;98091.66;5112091;28;20039;-72
2021/12/02 00:30:05;;;;;;;4.60;1.02;;;;;;;10.36;43.67;98067.69;5117318;28;20043;-72
2021/12/02 00:32:32;;;;;;;8.02;0.80;;;;;;;10.23;43.98;98079.06;5117926;28;20106;-72
2021/12/02 00:34:58;;;;;;;18.13;1.15;;;;;;;10.08;44.44;98090.81;5116731;28;20047;-72
2021/12/02 00:37:27;;;;;;;4.35;0.60;;;;;;;10.18;44.29;98076.16;5118136;28;20122;-72
2021/12/02 00:39:54;;;;;;;5.78;1.05;;;;;;;10.07;44.54;98092.66;5111949;28;20138;-71
2021/12/02 00:42:21;;;;;;;7.55;0.90;;;;;;;10.30;44.33;98089.75;5117522;28;20071;-72
2021/12/02 00:44:47;;;;;;;4.05;0.90;;;;;;;10.90;43.55;98093.47;5119851;28;20107;-72
2021/12/02 00:47:15;;;;;;;7.35;1.10;;;;;;;10.80;43.71;98110.88;5118131;28;20044;-71
2021/12/02 00:49:44;;;;;;;6.68;1.15;;;;;;;10.38;44.82;98112.75;5118234;28;21573;-71
2021/12/02 00:52:11;;;;;;;6.00;0.88;;;;;;;10.49;44.61;98117.50;5117924;28;20125;-72
2021/12/02 00:54:40;;;;;;;6.03;1.10;;;;;;;11.16;43.28;98132.72;5118141;28;20138;-71
2021/12/02 00:57:10;;;;;;;4.93;1.00;;;;;;;10.85;44.51;98140.44;5116991;28;20043;-72
2021/12/02 00:59:37;;;;;;;6.03;0.70;;;;;;;10.42;45.62;98151.28;5116529;28;20096;-71
2021/12/02 01:02:06;;;;;;;5.50;0.60;;;;;;;10.34;48.03;98172.75;5118420;28;20047;-72
2021/12/02 01:04:33;;;;;;;13.23;1.50;;;;;;;10.26;49.15;98170.25;5116769;28;20100;-72
2021/12/02 01:06:59;;;;;;;7.07;0.82;;;;;;;10.48;49.65;98182.44;5116686;28;20437;-72
2021/12/02 01:09:26;;;;;;;7.82;0.85;;;;;;;10.69;49.57;98216.19;5117616;28;20048;-72
2021/12/02 01:11:55;;;;;;;5.65;1.33;;;;;;;10.44;51.42;98232.63;5098859;28;20047;-72
2021/12/02 01:14:21;;;;;;;3.70;0.90;;;;;;;9.85;53.84;98229.47;5117821;28;20063;-72
2021/12/02 01:16:48;;;;;;;3.38;0.80;;;;;;;9.34;55.55;98227.72;5118092;28;20067;-72
2021/12/02 01:19:14;;;;;;;4.80;0.65;;;;;;;9.89;53.86;98230.72;5117649;28;20048;-72
2021/12/02 01:21:43;;;;;;;2.20;0.43;;;;;;;9.19;55.91;98250.84;5116977;28;20098;-71
2021/12/02 01:24:11;;;;;;;4.65;0.43;;;;;;;9.15;55.44;98233.63;5115655;28;20502;-71
2021/12/02 01:26:38;;;;;;;1.98;0.35;;;;;;;8.82;56.50;98234.84;5115878;28;20046;-72
2021/12/02 01:29:05;;;;;;;2.30;0.50;;;;;;;8.87;56.67;98252.06;5116653;28;20067;-71
2021/12/02 01:31:34;;;;;;;1.75;0.30;;;;;;;9.16;55.52;98244.06;5117145;28;20134;-72
2021/12/02 01:34:08;;;;;;;0.85;0.47;;;;;;;8.84;56.71;98239.16;5116270;28;20050;-72
2021/12/02 01:36:36;;;;;;;0.50;0.35;;;;;;;9.03;55.84;98235.94;5116094;28;20115;-72
2021/12/02 01:39:04;;;;;;;1.65;0.68;;;;;;;8.75;56.16;98264.97;5116203;28;20071;-72
2021/12/02 01:41:45;;;;;;;1.40;0.45;;;;;;;8.85;55.76;98240.81;5116053;28;20063;-72
2021/12/02 01:44:13;;;;;;;0.80;0.50;;;;;;;8.88;55.29;98256.38;5116120;28;20134;-72
2021/12/02 01:46:44;;;;;;;2.05;0.38;;;;;;;8.70;54.29;98251.44;5117190;28;20372;-72
2021/12/02 01:49:12;;;;;;;0.40;0.20;;;;;;;8.94;54.12;98251.16;5116137;28;20047;-72
2021/12/02 01:51:44;;;;;;;2.33;0.60;;;;;;;8.70;54.05;98256.75;5116016;28;20066;-72
2021/12/02 01:54:14;;;;;;;3.17;0.40;;;;;;;8.81;53.90;98248.31;5116378;28;20107;-72
2021/12/02 01:56:44;;;;;;;3.17;0.35;;;;;;;8.80;53.71;98239.53;5116237;28;20100;-72
2021/12/02 01:59:17;;;;;;;5.75;0.40;;;;;;;8.99;52.91;98238.13;5117134;28;20079;-72
2021/12/02 02:01:45;;;;;;;3.67;0.35;;;;;;;9.03;52.60;98249.22;5114563;28;20051;-72
2021/12/02 02:04:14;;;;;;;4.93;0.80;;;;;;;8.53;53.04;98258.75;5115280;28;20051;-71
2021/12/02 02:07:21;;;;;;;2.15;0.50;;;;;;;8.89;52.37;98242.91;5114762;28;20082;-72
2021/12/02 02:10:11;;;;;;;2.03;0.30;;;;;;;8.75;51.72;98268.47;5114896;28;20088;-72
2021/12/02 02:12:38;;;;;;;1.60;0.20;;;;;;;8.78;51.59;98251.34;5116579;28;20043;-72
2021/12/02 02:15:05;;;;;;;2.00;0.30;;;;;;;8.73;51.18;98259.88;5114460;28;20043;-72
2021/12/02 02:17:39;;;;;;;1.95;0.30;;;;;;;8.60;50.37;98257.03;5117145;28;20032;-72
2021/12/02 02:20:10;;;;;;;2.47;0.45;;;;;;;8.75;50.03;98251.69;5095097;28;20063;-72
2021/12/02 02:22:38;;;;;;;2.83;0.57;;;;;;;8.52;51.22;98265.91;5094259;28;20107;-71
2021/12/02 02:25:10;;;;;;;3.60;0.50;;;;;;;8.60;51.68;98266.81;5093859;28;20537;-71
2021/12/02 02:27:37;;;;;;;6.07;0.50;;;;;;;8.90;51.60;98273.78;5094462;28;20067;-72
2021/12/02 02:30:08;;;;;;;1.70;0.60;;;;;;;8.70;51.81;98265.53;5093861;28;20127;-72
2021/12/02 02:32:34;;;;;;;6.65;0.82;;;;;;;8.58;52.90;98281.09;5094238;28;20079;-72
2021/12/02 02:35:01;;;;;;;3.08;0.45;;;;;;;8.85;52.26;98275.34;5093194;28;20135;-71
2021/12/02 02:37:32;;;;;;;4.72;0.40;;;;;;;9.04;51.96;98288.91;5095168;28;20055;-71
2021/12/02 02:40:00;;;;;;;4.95;0.85;;;;;;;8.52;53.10;98286.28;5095207;28;20506;-72
2021/12/02 02:42:27;;;;;;;2.15;0.70;;;;;;;8.70;52.96;98276.16;5093565;28;20086;-72
2021/12/02 02:44:54;;;;;;;4.32;0.65;;;;;;;8.94;51.54;98290.19;5093228;28;20063;-71
2021/12/02 02:47:24;;;;;;;3.70;0.55;;;;;;;8.74;51.46;98296.03;5093925;28;20044;-71
2021/12/02 02:49:50;;;;;;;3.03;0.63;;;;;;;8.93;50.88;98296.50;5075258;28;20054;-72
2021/12/02 02:52:16;;;;;;;4.72;0.60;;;;;;;9.12;50.46;98293.28;5097886;28;20126;-72
2021/12/02 02:54:43;;;;;;;4.78;0.60;;;;;;;9.00;50.54;98300.06;5114945;28;20047;-71
2021/12/02 02:57:12;;;;;;;5.05;0.80;;;;;;;8.73;51.21;98299.72;5113641;28;20048;-72
2021/12/02 02:59:59;;;;;;;4.00;0.40;;;;;;;8.91;50.61;98309.16;5114329;28;20067;-72
2021/12/02 03:02:43;;;;;;;7.25;0.77;;;;;;;8.51;51.71;98304.06;5093505;28;20040;-71
2021/12/02 03:05:26;;;;;;;4.45;0.68;;;;;;;8.74;51.45;98298.69;5101640;28;20043;-71
2021/12/02 03:07:56;;;;;;;4.22;0.85;;;;;;;8.99;51.32;98317.03;5114438;28;20047;-71
2021/12/02 03:12:56;;;;;;;6.07;0.95;;;;;;;8.63;52.81;98319.56;5114863;28;20132;-71
2021/12/02 03:17:50;;;;;;;2.67;0.82;;;;;;;8.77;52.14;98340.00;5115235;28;20551;-72
2021/12/02 03:20:16;;;;;;;7.60;0.80;;;;;;;8.94;51.10;98338.03;5115412;28;20130;-71
2021/12/02 03:22:43;;;;;;;5.25;0.85;;;;;;;8.82;51.95;98338.44;5115168;28;20043;-72
2021/12/02 03:25:10;;;;;;;2.08;0.70;;;;;;;9.16;51.21;98339.75;5114748;28;20044;-72
2021/12/02 03:27:37;;;;;;;5.07;1.00;;;;;;;8.92;51.08;98348.00;5114670;28;20116;-71
2021/12/02 03:30:06;;;;;;;7.05;1.27;;;;;;;8.74;51.25;98338.53;5115714;28;20043;-72
2021/12/02 03:32:34;;;;;;;6.68;1.42;;;;;;;9.08;50.64;98344.34;5096971;28;20047;-72
2021/12/02 03:35:01;;;;;;;11.10;1.00;;;;;;;8.83;51.15;98363.19;5113252;28;20063;-72
2021/12/02 03:37:27;;;;;;;3.20;0.68;;;;;;;8.59;51.60;98356.28;5111455;28;20122;-72
2021/12/02 03:39:54;;;;;;;5.78;1.00;;;;;;;8.76;50.81;98364.91;5095644;28;20131;-71
2021/12/02 03:42:20;;;;;;;4.85;0.88;;;;;;;8.80;51.11;98364.38;5114505;28;20120;-71
2021/12/02 03:44:47;;;;;;;4.63;1.00;;;;;;;8.58;51.93;98359.94;5108829;28;20453;-72
2021/12/02 03:54:48;;;;;;;7.63;1.30;;;;;;;8.79;51.22;98368.03;5118244;28;20050;-72
2021/12/02 03:57:14;;;;;;;5.45;1.08;;;;;;;8.54;52.01;98369.25;5118055;28;20538;-72
2021/12/02 03:59:41;;;;;;;5.35;1.00;;;;;;;8.39;52.74;98379.03;5119487;28;20079;-72
2021/12/02 04:02:07;;;;;;;3.80;1.17;;;;;;;8.56;51.37;98377.88;5119196;28;20070;-72
2021/12/02 04:04:34;;;;;;;4.43;1.00;;;;;;;8.44;51.32;98379.28;5118128;28;20047;-72
2021/12/02 04:07:00;;;;;;;5.03;0.90;;;;;;;8.84;50.83;98378.13;5110795;27;20055;-72
2021/12/02 04:09:34;;;;;;;4.70;0.80;;;;;;;8.59;50.91;98388.16;5118229;28;20039;-72
2021/12/02 04:12:09;;;;;;;4.55;0.57;;;;;;;9.09;49.92;98384.03;5116347;28;20542;-72
2021/12/02 04:14:50;;;;;;;4.85;0.93;;;;;;;8.68;50.39;98387.06;5117473;28;20048;-72
2021/12/02 04:17:18;;;;;;;3.75;0.50;;;;;;;8.51;50.87;98397.00;5119405;28;20111;-72
2021/12/02 04:19:45;;;;;;;5.00;1.10;;;;;;;8.80;49.62;98396.25;5119390;28;20059;-72
2021/12/02 04:22:11;;;;;;;3.20;0.60;;;;;;;8.54;50.20;98406.44;5118028;28;20071;-71
2021/12/02 04:24:38;;;;;;;8.02;2.25;;;;;;;8.90;49.11;98414.59;5118133;28;20043;-72
2021/12/02 04:27:04;;;;;;;3.97;0.80;;;;;;;8.61;49.40;98422.47;5117689;28;20107;-72
2021/12/02 04:29:31;;;;;;;3.85;0.82;;;;;;;8.76;48.96;98420.69;5117635;28;20044;-72
2021/12/02 04:31:57;;;;;;;5.47;1.00;;;;;;;8.63;49.11;98421.31;5116417;28;20066;-72
2021/12/02 04:34:24;;;;;;;4.22;0.90;;;;;;;8.32;49.67;98427.47;5118049;28;20090;-72
2021/12/02 04:36:50;;;;;;;3.15;0.73;;;;;;;8.40;50.07;98434.56;5117557;28;20580;-72
2021/12/02 04:39:17;;;;;;;2.63;0.63;;;;;;;8.39;49.73;98438.25;5117635;28;20134;-72
2021/12/02 04:41:43;;;;;;;5.82;0.98;;;;;;;8.44;49.84;98445.66;5118676;28;20114;-72
2021/12/02 04:44:10;;;;;;;3.88;0.55;;;;;;;8.49;49.62;98461.91;5118047;28;20067;-72
2021/12/02 04:46:37;;;;;;;5.28;1.00;;;;;;;8.30;50.31;98448.03;5119283;28;20166;-72
2021/12/02 04:49:03;;;;;;;7.38;1.77;;;;;;;8.15;50.66;98460.41;5100558;28;20493;-72
2021/12/02 04:51:30;;;;;;;4.78;1.00;;;;;;;8.46;49.76;98463.09;5119097;28;20036;-72
2021/12/02 04:53:56;;;;;;;6.82;0.93;;;;;;;8.39;49.50;98461.31;5117926;28;20078;-72
2021/12/02 04:56:23;;;;;;;4.13;0.63;;;;;;;8.54;49.11;98478.13;5119011;28;20071;-72
2021/12/02 04:58:49;;;;;;;4.40;0.82;;;;;;;8.33;48.60;98471.59;5119465;28;20119;-72
2021/12/02 05:01:16;;;;;;;8.05;0.60;;;;;;;8.73;48.30;98479.50;5116416;28;20043;-72
2021/12/02 05:03:42;;;;;;;2.38;0.90;;;;;;;8.02;49.71;98476.06;5100065;28;20055;-72
2021/12/02 05:06:14;;;;;;;4.50;0.70;;;;;;;8.16;49.22;98493.09;5117761;28;20051;-72
2021/12/02 05:08:40;;;;;;;2.53;0.68;;;;;;;8.01;49.42;98487.69;5118281;28;20051;-71
2021/12/02 05:11:07;;;;;;;8.40;0.70;;;;;;;8.06;49.67;98488.81;5119344;28;20059;-71
2021/12/02 05:13:33;;;;;;;6.22;0.95;;;;;;;8.42;48.98;98487.50;5118396;28;20039;-71
2021/12/02 05:16:00;;;;;;;11.35;0.93;;;;;;;8.08;49.58;98486.00;5117135;28;20135;-71
2021/12/02 05:18:27;;;;;;;7.43;0.70;;;;;;;8.12;49.76;98500.56;5117048;28;20115;-71
2021/12/02 05:20:54;;;;;;;1.88;0.57;;;;;;;8.06;49.85;98504.72;5117047;28;20105;-71
2021/12/02 05:23:21;;;;;;;2.85;0.80;;;;;;;8.45;49.17;98497.75;5118052;28;20047;-72
2021/12/02 05:25:48;;;;;;;3.53;0.73;;;;;;;8.51;49.32;98505.84;5118214;28;20105;-71
2021/12/02 05:28:15;;;;;;;3.50;0.80;;;;;;;8.50;49.66;98506.03;5118433;28;20051;-70
2021/12/02 05:30:42;;;;;;;5.57;0.85;;;;;;;8.16;50.43;98519.63;5119772;28;20078;-70
2021/12/02 05:33:08;;;;;;;5.88;0.80;;;;;;;8.66;49.72;98523.69;5118948;28;20395;-71
2021/12/02 05:35:35;;;;;;;5.00;1.00;;;;;;;8.83;49.38;98530.53;5116787;28;20040;-71
2021/12/02 05:38:02;;;;;;;4.53;0.88;;;;;;;8.73;49.13;98535.28;5117456;28;20043;-71
2021/12/02 05:40:28;;;;;;;8.45;1.00;;;;;;;8.19;50.62;98530.72;5117332;28;20047;-71
2021/12/02 05:42:55;;;;;;;4.10;1.02;;;;;;;8.12;51.13;98535.06;5119278;28;20114;-71
2021/12/02 05:45:21;;;;;;;8.82;0.77;;;;;;;8.88;49.32;98548.63;5117261;28;20063;-71
2021/12/02 05:47:48;;;;;;;4.10;1.08;;;;;;;8.66;49.18;98548.44;5118103;28;20047;-71
2021/12/02 05:50:14;;;;;;;4.15;0.80;;;;;;;9.09;48.12;98548.78;5098501;28;20131;-71
2021/12/02 05:52:41;;;;;;;5.20;0.88;;;;;;;8.70;49.08;98564.84;5118247;28;20071;-71
2021/12/02 05:55:08;;;;;;;4.13;0.80;;;;;;;8.22;49.63;98558.75;5118733;28;20097;-71
2021/12/02 05:57:34;;;;;;;2.17;0.50;;;;;;;8.64;48.84;98565.53;5116835;28;20059;-70
2021/12/02 06:00:02;;;;;;;4.85;0.80;;;;;;;8.51;48.76;98571.41;5118441;28;20067;-71
2021/12/02 06:02:28;;;;;;;4.60;0.63;;;;;;;8.41;48.60;98562.81;5118430;28;20105;-71
2021/12/02 06:04:55;;;;;;;4.97;0.73;;;;;;;8.66;47.84;98567.03;5116437;28;20051;-71
2021/12/02 06:07:21;;;;;;;7.93;0.93;;;;;;;8.31;48.40;98561.19;5118176;28;20066;-71
2021/12/02 06:09:48;;;;;;;2.28;0.68;;;;;;;8.46;47.84;98573.78;5116951;28;20149;-72
2021/12/02 06:12:14;;;;;;;6.72;0.90;;;;;;;8.22;48.40;98588.75;5098998;28;20455;-71
2021/12/02 06:14:41;;;;;;;3.70;0.70;;;;;;;8.69;47.53;98579.09;5115898;28;20071;-71
2021/12/02 06:17:07;;;;;;;5.57;1.08;;;;;;;8.30;48.13;98591.38;5116308;28;20071;-71
2021/12/02 06:19:34;;;;;;;3.40;0.70;;;;;;;8.61;47.30;98593.25;5113319;28;20380;-71
2021/12/02 06:22:01;;;;;;;4.32;1.00;;;;;;;8.37;48.61;98604.78;5115691;28;20063;-71
2021/12/02 06:24:30;;;;;;;2.55;0.68;;;;;;;8.61;48.01;98605.72;5117311;28;20118;-71
2021/12/02 06:26:57;;;;;;;3.78;0.70;;;;;;;8.42;47.95;98620.25;5115819;28;20067;-72
2021/12/02 06:29:24;;;;;;;6.10;0.70;;;;;;;8.50;47.79;98615.72;5116262;28;20501;-72
2021/12/02 06:31:50;;;;;;;2.25;0.77;;;;;;;8.53;47.46;98615.38;5116974;28;20063;-71
2021/12/02 06:34:17;;;;;;;2.33;0.55;;;;;;;7.98;48.37;98626.00;5118273;28;20099;-71
2021/12/02 06:36:43;;;;;;;4.10;0.90;;;;;;;7.82;49.24;98627.66;5117971;28;20075;-71
2021/12/02 06:39:10;;;;;;;4.57;0.60;;;;;;;8.23;48.75;98645.31;5117831;28;20099;-72
2021/12/02 06:41:36;;;;;;;5.88;0.90;;;;;;;8.41;47.94;98637.16;5100340;28;20074;-72
2021/12/02 06:44:03;;;;;;;4.72;0.55;;;;;;;8.44;47.88;98655.41;5117014;28;20073;-72
2021/12/02 06:46:29;;;;;;;2.33;0.73;;;;;;;8.66;47.17;98662.66;5115146;28;20074;-71
2021/12/02 06:48:56;;;;;;;2.35;0.70;;;;;;;7.80;49.16;98658.84;5117049;28;20063;-72
2021/12/02 06:51:23;;;;;;;5.97;0.70;;;;;;;8.33;47.26;98662.72;5117289;28;20093;-71
2021/12/02 06:53:49;;;;;;;2.10;0.60;;;;;;;8.07;47.64;98662.09;5117606;28;20131;-72
2021/12/02 06:56:16;;;;;;;2.33;0.43;;;;;;;7.63;48.43;98670.44;5099265;28;20098;-71
2021/12/02 06:58:42;;;;;;;11.75;1.48;;;;;;;7.72;48.18;98677.38;5116980;28;20047;-71
2021/12/02 07:01:09;;;;;;;4.75;0.73;;;;;;;7.73;47.81;98673.75;5115211;28;20043;-71
2021/12/02 07:03:36;;;;;;;3.05;0.85;;;;;;;8.20;46.72;98670.38;5117568;28;20483;-71
2021/12/02 07:06:02;;;;;;;3.40;0.80;;;;;;;8.21;46.63;98684.47;5117095;28;20101;-72
2021/12/02 07:08:30;;;;;;;1.60;0.60;;;;;;;8.50;46.31;98683.94;5119182;28;20093;-72
2021/12/02 07:11:04;;;;;;;6.03;1.00;;;;;;;8.20;46.90;98680.97;5117654;28;20040;-71
2021/12/02 07:13:30;;;;;;;2.50;0.70;;;;;;;7.53;48.61;98683.88;5116542;28;20044;-72
2021/12/02 07:15:59;;;;;;;3.17;0.90;;;;;;;7.92;47.45;98692.97;5115781;28;20413;-72
2021/12/02 07:18:26;;;;;;;4.90;1.02;;;;;;;8.02;47.72;98706.91;5116182;28;20496;-71
2021/12/02 07:20:52;;;;;;;6.45;0.80;;;;;;;8.30;47.45;98702.03;5115971;28;20043;-71
2021/12/02 07:23:21;;;;;;;6.88;1.02;;;;;;;8.07;48.38;98713.38;5117224;28;20538;-71
2021/12/02 07:25:49;;;;;;;4.15;0.80;;;;;;;8.61;47.26;98703.97;5116870;28;20058;-71
2021/12/02 07:28:16;;;;;;;2.15;0.68;;;;;;;8.73;47.17;98711.41;5117948;28;20051;-71
2021/12/02 07:30:44;;;;;;;4.53;1.65;;;;;;;8.85;46.72;98724.31;5116209;28;20438;-71
2021/12/02 07:33:11;;;;;;;5.13;1.63;;;;;;;8.34;48.25;98722.75;5114540;28;20039;-71
2021/12/02 07:35:37;;;;;;;8.55;3.28;;;;;;;8.71;47.25;98732.00;5115468;28;20043;-71
2021/12/02 07:38:04;;;;;;;5.68;1.55;;;;;;;8.28;47.27;98739.38;5115218;28;20043;-72
2021/12/02 07:40:36;;;;;;;7.25;1.55;;;;;;;8.14;47.58;98734.75;5113229;28;20087;-71
2021/12/02 07:43:04;;;;;;;4.95;1.00;;;;;;;7.91;47.56;98731.13;5115190;28;20411;-71
2021/12/02 07:45:34;;;;;;;4.13;1.02;;;;;;;8.01;47.70;98743.22;5117563;28;20043;-72
2021/12/02 07:48:04;;;;;;;4.45;1.45;;;;;;;7.69;48.09;98752.00;5099953;28;20459;-72
2021/12/02 07:50:30;;;;;;;7.18;0.63;;;;;;;8.22;47.06;98763.94;5118443;28;20040;-72
2021/12/02 07:53:01;;;;;;;2.20;0.70;;;;;;;8.12;47.38;98765.09;5117456;28;20070;-72
2021/12/02 07:55:29;;;;;;;4.50;0.70;;;;;;;8.21;46.88;98770.25;5116448;28;20118;-71
2021/12/02 07:57:57;;;;;;;7.93;0.75;;;;;;;8.58;46.42;98776.84;5117070;28;20040;-71
2021/12/02 08:00:26;;;;;;;5.40;0.93;;;;;;;8.30;46.76;98787.81;5098566;28;20050;-72
2021/12/02 08:02:54;;;;;;;6.13;1.48;;;;;;;8.31;47.26;98778.00;5117128;28;20047;-71
2021/12/02 08:05:22;;;;;;;6.60;0.90;;;;;;;8.55;46.52;98785.97;5117084;28;25985;-71
2021/12/02 08:07:50;;;;;;;4.53;0.93;;;;;;;8.01;47.28;98784.84;5120348;28;20540;-72
2021/12/02 08:10:18;;;;;;;7.45;1.02;;;;;;;8.44;46.96;98794.28;5115758;28;20047;-71
2021/12/02 08:12:47;;;;;;;6.65;0.93;;;;;;;8.35;47.12;98803.25;5116865;28;20097;-71
2021/12/02 08:15:25;;;;;;;2.60;0.88;;;;;;;8.03;47.60;98806.72;5115714;28;20126;-71
2021/12/02 08:17:53;;;;;;;5.10;0.90;;;;;;;8.52;46.67;98804.06;5108648;28;20116;-71
2021/12/02 08:20:21;;;;;;;5.13;0.88;;;;;;;8.38;47.06;98813.53;5116990;28;20048;-73
2021/12/02 08:22:47;;;;;;;3.67;0.60;;;;;;;8.43;46.48;98823.69;5117733;28;20097;-73
2021/12/02 08:25:15;;;;;;;4.80;1.33;;;;;;;8.64;45.81;98824.00;5118699;28;20047;-77
2021/12/02 08:27:42;;;;;;;6.25;0.98;;;;;;;8.39;46.50;98835.63;5117912;28;20040;-73
2021/12/02 08:30:11;;;;;;;4.07;0.90;;;;;;;8.29;46.49;98843.72;5116285;28;20074;-73
2021/12/02 08:32:41;;;;;;;5.00;0.85;;;;;;;8.20;46.12;98842.88;5116574;28;20046;-73
2021/12/02 08:35:09;;;;;;;3.92;1.50;;;;;;;8.67;45.47;98858.19;5122719;28;20090;-74
2021/12/02 08:37:40;;;;;;;3.50;1.00;;;;;;;8.24;45.94;98857.50;5121474;28;20490;-73
2021/12/02 08:40:08;;;;;;;5.38;0.65;;;;;;;7.98;46.54;98867.41;5121568;28;20455;-74
2021/12/02 08:42:34;;;;;;;3.90;0.73;;;;;;;8.42;45.41;98881.28;5123013;28;20047;-73
2021/12/02 08:45:01;;;;;;;6.05;1.02;;;;;;;8.24;45.29;98875.22;5121950;28;20101;-73
2021/12/02 08:47:28;;;;;;;4.13;1.10;;;;;;;8.41;44.70;98878.75;5122353;28;20074;-73
2021/12/02 08:49:56;;;;;;;5.00;0.70;;;;;;;8.14;45.15;98886.03;5120658;28;20044;-73
2021/12/02 08:52:26;;;;;;;2.15;0.70;;;;;;;8.28;44.99;98896.00;5120334;28;20043;-73
2021/12/02 08:54:54;;;;;;;3.53;0.63;;;;;;;8.61;44.71;98882.75;5120294;28;20097;-73
2021/12/02 08:57:42;;;;;;;6.70;1.27;;;;;;;8.66;43.65;98880.44;5118846;28;20126;-73
2021/12/02 09:00:13;;;;;;;1.45;0.57;;;;;;;8.13;44.57;98880.88;5118222;28;20043;-72
2021/12/02 09:02:39;;;;;;;8.65;1.08;;;;;;;8.13;44.84;98880.88;5117654;28;20093;-73
2021/12/02 09:05:08;;;;;;;3.72;0.70;;;;;;;8.01;44.63;98888.31;5116770;28;20048;-73
2021/12/02 09:07:35;;;;;;;3.80;1.00;;;;;;;7.76;45.53;98898.88;5114732;28;20122;-72
2021/12/02 09:10:03;;;;;;;8.52;1.17;;;;;;;8.04;44.70;98906.56;5117292;28;20063;-73
2021/12/02 09:12:30;;;;;;;5.72;0.90;;;;;;;8.37;43.61;98911.91;5116859;28;20467;-74
2021/12/02 09:14:56;;;;;;;4.57;1.10;;;;;;;7.96;44.43;98909.19;5116072;28;20039;-74
2021/12/02 09:17:24;;;;;;;5.07;0.90;;;;;;;7.89;44.18;98910.84;5119457;28;20074;-73
2021/12/02 09:19:51;;;;;;;1.48;0.55;;;;;;;8.14;44.10;98923.19;5117839;28;20071;-73
2021/12/02 09:22:18;;;;;;;4.38;1.35;;;;;;;7.87;44.14;98929.56;5117912;28;20134;-73
2021/12/02 09:24:45;;;;;;;6.15;1.10;;;;;;;8.31;43.16;98921.38;5118627;28;20039;-73
2021/12/02 09:27:11;;;;;;;3.22;1.00;;;;;;;8.35;42.97;98922.72;5117425;28;20107;-73
2021/12/02 09:29:38;;;;;;;3.38;0.50;;;;;;;8.06;43.32;98926.63;5119386;28;20097;-73
2021/12/02 09:32:05;;;;;;;4.53;0.75;;;;;;;7.95;43.21;98934.91;5118490;28;20130;-73
2021/12/02 09:34:32;;;;;;;3.45;0.68;;;;;;;8.54;42.30;98932.22;5118715;28;20039;-74
2021/12/02 09:36:58;;;;;;;2.95;0.70;;;;;;;9.23;41.29;98932.66;5119393;28;20063;-74
2021/12/02 09:39:31;;;;;;;3.03;0.88;;;;;;;9.48;40.07;98936.91;5118959;28;20040;-73
2021/12/02 09:41:58;;;;;;;8.45;1.35;;;;;;;9.70;39.00;98939.84;5120190;28;20050;-73
2021/12/02 09:44:29;;;;;;;4.00;0.60;;;;;;;10.43;37.90;98926.16;5101345;28;20043;-73
2021/12/02 09:46:55;;;;;;;4.70;1.13;;;;;;;10.94;36.74;98928.22;5118580;28;20119;-73
2021/12/02 09:49:23;;;;;;;3.28;0.77;;;;;;;11.03;36.53;98931.66;5118717;28;20149;-75
2021/12/02 09:54:28;;;;;;;2.57;1.00;;;;;;;11.17;35.58;98939.69;5121487;28;20043;-74
2021/12/02 09:56:59;;;;;;;2.92;0.52;;;;;;;11.09;35.89;98939.78;5120919;28;20073;-73
2021/12/02 09:59:28;;;;;;;5.38;1.08;;;;;;;11.60;35.53;98921.22;5119138;28;20046;-73
2021/12/02 10:02:06;;;;;;;5.22;0.93;;;;;;;11.47;35.21;98937.06;5119714;28;20071;-73
2021/12/02 10:04:42;;;;;;;2.72;0.80;;;;;;;11.98;33.74;98934.44;5119263;28;20044;-74
2021/12/02 10:07:37;;;;;;;3.05;0.55;;;;;;;11.92;33.89;98939.72;5118194;28;20044;-74
2021/12/02 10:10:12;;;;;;;4.25;1.05;;;;;;;12.18;34.01;98941.88;5116890;28;20071;-73
2021/12/02 10:12:52;;;;;;;4.88;0.93;;;;;;;12.32;33.63;98944.50;5117574;28;20075;-74
2021/12/02 10:15:19;;;;;;;8.45;1.17;;;;;;;11.65;34.25;98950.03;5118746;28;20466;-74
2021/12/02 10:17:49;;;;;;;3.47;0.80;;;;;;;12.51;33.54;98960.94;5118116;28;20063;-73
2021/12/02 10:23:17;;;;;;;4.13;1.00;;;;;;;11.97;34.54;98962.16;5119976;28;20043;-73
2021/12/02 10:26:03;;;;;;;3.38;1.27;;;;;;;12.50;33.76;98964.63;5118508;28;20050;-73
2021/12/02 10:28:34;;;;;;;1.17;0.50;;;;;;;12.50;33.77;98968.09;5120086;28;20067;-73
2021/12/02 10:31:04;;;;;;;6.63;1.10;;;;;;;12.58;32.92;98983.22;5118446;28;20121;-73
2021/12/02 10:33:39;;;;;;;3.90;0.82;;;;;;;12.37;33.57;98966.16;5105327;28;20062;-74
2021/12/02 10:36:22;;;;;;;4.03;1.00;;;;;;;11.52;34.44;98979.19;5118940;28;20479;-73
2021/12/02 10:38:49;;;;;;;7.05;1.10;;;;;;;12.17;34.12;98978.44;5116746;28;20135;-73
2021/12/02 10:41:20;;;;;;;4.68;0.90;;;;;;;11.18;35.19;98978.66;5118648;28;20054;-73
2021/12/02 10:44:01;;;;;;;7.68;2.17;;;;;;;12.02;34.08;98974.94;5110269;28;20043;-73
2021/12/02 10:46:27;;;;;;;7.25;2.10;;;;;;;12.31;33.35;98980.25;5126100;27;20102;-73
2021/12/02 10:48:54;;;;;;;5.40;1.75;;;;;;;12.06;34.01;98987.75;5119348;28;20061;-73
2021/12/02 10:51:52;;;;;;;3.42;0.95;;;;;;;11.53;34.40;98976.31;5117028;28;20101;-73
2021/12/02 10:54:24;;;;;;;3.70;0.98;;;;;;;12.33;33.70;98988.06;5119846;28;20048;-73
2021/12/02 10:56:54;;;;;;;9.80;2.35;;;;;;;11.74;34.23;98982.78;5118106;28;20135;-73
2021/12/02 10:59:23;;;;;;;6.75;1.63;;;;;;;11.93;34.12;98992.09;5118736;28;20054;-73
2021/12/02 11:01:55;;;;;;;5.50;2.05;;;;;;;12.29;33.59;98995.63;5119701;28;20071;-73
2021/12/02 11:04:22;;;;;;;5.13;1.30;;;;;;;11.84;34.42;99005.53;5119822;28;20082;-74
2021/12/02 11:06:51;;;;;;;4.38;1.17;;;;;;;11.52;34.70;99004.03;5120571;28;20043;-73
2021/12/02 11:09:32;;;;;;;3.50;1.23;;;;;;;12.61;33.00;98999.72;5117903;28;20133;-73
2021/12/02 11:12:13;;;;;;;4.43;1.10;;;;;;;12.83;33.26;99010.41;5118632;28;20067;-74
2021/12/02 11:14:52;;;;;;;9.07;1.23;;;;;;;12.20;33.78;99009.31;5118451;28;20043;-74
2021/12/02 11:17:20;;;;;;;4.53;1.10;;;;;;;11.57;34.10;99004.31;5117665;28;20078;-73
2021/12/02 11:19:49;;;;;;;4.60;1.25;;;;;;;12.55;33.19;99011.16;5116344;28;20043;-75
2021/12/02 11:22:21;;;;;;;4.97;1.40;;;;;;;11.34;34.34;99009.72;5116569;28;20051;-73
2021/12/02 11:24:50;;;;;;;4.70;1.40;;;;;;;11.64;34.01;98994.56;5117097;28;20039;-74
2021/12/02 11:27:19;;;;;;;4.68;1.00;;;;;;;11.48;34.46;99008.06;5117882;28;20070;-74
2021/12/02 11:29:55;;;;;;;4.80;1.20;;;;;;;12.00;33.43;99007.19;5104704;28;20548;-74
2021/12/02 11:32:30;;;;;;;6.38;0.82;;;;;;;11.82;33.81;99017.41;5119815;28;20097;-75
2021/12/02 11:35:03;;;;;;;5.97;0.82;;;;;;;11.49;34.43;99017.72;5120602;28;20126;-73
2021/12/02 11:37:32;;;;;;;4.45;0.52;;;;;;;11.46;34.26;99015.41;5120799;28;20067;-73
2021/12/02 11:40:03;;;;;;;4.05;1.20;;;;;;;11.82;33.37;99012.88;5119589;28;20043;-74
2021/12/02 11:42:30;;;;;;;;;;;;;;;12.50;32.27;99021.56;5119310;28;20490;-74
2021/12/02 11:44:57;;;;;;;6.55;1.10;;;;;;;11.89;33.23;99018.34;5118429;28;19926;-74
2021/12/02 11:47:24;;;;;;;8.25;1.10;;;;;;;12.96;31.89;99015.06;5117058;28;20105;-74
2021/12/02 11:49:50;;;;;;;3.17;0.75;;;;;;;13.31;31.23;99024.88;5117091;28;20474;-73
2021/12/02 11:52:17;;;;;;;3.95;1.30;;;;;;;12.85;31.78;99022.56;5118788;28;20444;-74
2021/12/02 11:54:43;;;;;;;5.50;1.23;;;;;;;12.67;32.06;99030.19;5117242;28;20042;-74
2021/12/02 11:57:10;;;;;;;4.68;1.10;;;;;;;12.91;31.87;99028.16;5116800;28;20039;-77
2021/12/02 11:59:37;;;;;;;5.07;1.38;;;;;;;13.23;30.85;99024.97;5118755;28;20061;-74
2021/12/02 12:02:04;;;;;;;5.97;1.33;;;;;;;13.51;30.72;99030.38;5118078;28;20044;-74
2021/12/02 12:04:33;;;;;;;4.88;0.98;;;;;;;13.42;31.11;99030.72;5117242;28;20039;-75
2021/12/02 12:07:15;;;;;;;2.40;0.80;;;;;;;13.54;30.49;99035.34;5116157;28;20043;-74
2021/12/02 12:09:41;;;;;;;5.88;0.80;;;;;;;14.81;28.42;99041.34;5120453;28;20466;-74